sensor_id;sensor_type;location;lat;lon;timestamp;P1;durP1;ratioP1;P2;durP2;ratioP2
15086;SDS011;7642;48.478;8.952;2022-09-21T00:00:02;2.95;;;1.55;;
15086;SDS011;7642;48.478;8.952;2022-09-21T00:02:29;4.35;;;1.52;;
15086;SDS011;7642;48.478;8.952;2022-09-21T00:04:55;1.77;;;1.17;;
15086;SDS011;7642;48.478;8.952;2022-09-21T00:07:20;3.30;;;1.90;;
15086;SDS011;7642;48.478;8.952;2022-09-21T00:09:46;2.28;;;1.48;;
15086;SDS011;7642;48.478;8.952;2022-09-21T00:12:11;3.33;;;1.70;;
15086;SDS011;7642;48.478;8.952;2022-09-21T00:14:37;3.60;;;1.50;;
15086;SDS011;7642;48.478;8.952;2022-09-21T00:17:03;3.35;;;1.38;;
15086;SDS011;7642;48.478;8.952;2022-09-21T00:19:28;4.93;;;2.00;;
15086;SDS011;7642;48.478;8.952;2022-09-21T00:21:54;1.92;;;1.55;;
15086;SDS011;7642;48.478;8.952;2022-09-21T00:24:20;3.35;;;2.00;;
15086;SDS011;7642;48.478;8.952;2022-09-21T00:26:46;2.20;;;1.40;;
15086;SDS011;7642;48.478;8.952;2022-09-21T00:29:11;1.55;;;1.45;;
15086;SDS011;7642;48.478;8.952;2022-09-21T00:31:38;3.60;;;2.10;;
15086;SDS011;7642;48.478;8.952;2022-09-21T00:34:04;3.30;;;1.70;;
15086;SDS011;7642;48.478;8.952;2022-09-21T00:36:31;2.83;;;2.28;;
15086;SDS011;7642;48.478;8.952;2022-09-21T00:38:58;2.92;;;1.92;;
15086;SDS011;7642;48.478;8.952;2022-09-21T00:41:25;4.63;;;1.70;;
15086;SDS011;7642;48.478;8.952;2022-09-21T00:46:40;2.72;;;1.98;;
15086;SDS011;7642;48.478;8.952;2022-09-21T00:49:07;2.10;;;1.70;;
15086;SDS011;7642;48.478;8.952;2022-09-21T00:51:34;2.85;;;1.65;;
15086;SDS011;7642;48.478;8.952;2022-09-21T00:54:01;1.90;;;1.42;;
15086;SDS011;7642;48.478;8.952;2022-09-21T00:56:34;1.98;;;1.55;;
15086;SDS011;7642;48.478;8.952;2022-09-21T00:59:01;1.75;;;1.33;;
15086;SDS011;7642;48.478;8.952;2022-09-21T01:01:28;1.98;;;1.50;;
15086;SDS011;7642;48.478;8.952;2022-09-21T01:03:54;2.42;;;1.40;;
15086;SDS011;7642;48.478;8.952;2022-09-21T01:06:21;3.25;;;1.50;;
15086;SDS011;7642;48.478;8.952;2022-09-21T01:08:51;2.70;;;1.58;;
15086;SDS011;7642;48.478;8.952;2022-09-21T01:14:10;3.60;;;1.38;;
15086;SDS011;7642;48.478;8.952;2022-09-21T01:16:47;5.20;;;1.73;;
15086;SDS011;7642;48.478;8.952;2022-09-21T01:22:40;2.72;;;1.63;;
15086;SDS011;7642;48.478;8.952;2022-09-21T01:25:34;2.13;;;1.48;;
15086;SDS011;7642;48.478;8.952;2022-09-21T01:30:40;1.77;;;1.50;;
15086;SDS011;7642;48.478;8.952;2022-09-21T01:35:56;2.13;;;1.50;;
15086;SDS011;7642;48.478;8.952;2022-09-21T01:38:29;3.90;;;2.05;;
15086;SDS011;7642;48.478;8.952;2022-09-21T01:41:03;2.38;;;2.08;;
15086;SDS011;7642;48.478;8.952;2022-09-21T01:43:39;3.42;;;1.80;;
15086;SDS011;7642;48.478;8.952;2022-09-21T01:46:09;4.25;;;1.75;;
15086;SDS011;7642;48.478;8.952;2022-09-21T01:48:39;2.58;;;1.70;;
15086;SDS011;7642;48.478;8.952;2022-09-21T01:51:10;8.23;;;3.75;;
15086;SDS011;7642;48.478;8.952;2022-09-21T01:53:40;4.03;;;2.47;;
15086;SDS011;7642;48.478;8.952;2022-09-21T01:59:15;5.32;;;2.35;;
15086;SDS011;7642;48.478;8.952;2022-09-21T02:01:43;2.17;;;1.52;;
15086;SDS011;7642;48.478;8.952;2022-09-21T02:04:13;2.08;;;1.35;;
15086;SDS011;7642;48.478;8.952;2022-09-21T02:06:40;2.88;;;1.60;;
15086;SDS011;7642;48.478;8.952;2022-09-21T02:09:08;4.63;;;2.22;;
15086;SDS011;7642;48.478;8.952;2022-09-21T02:11:35;2.65;;;1.73;;
15086;SDS011;7642;48.478;8.952;2022-09-21T02:14:06;2.17;;;1.60;;
15086;SDS011;7642;48.478;8.952;2022-09-21T02:17:29;2.03;;;1.70;;
15086;SDS011;7642;48.478;8.952;2022-09-21T02:19:45;1.63;;;1.20;;
15086;SDS011;7642;48.478;8.952;2022-09-21T02:24:45;2.33;;;1.63;;
15086;SDS011;7642;48.478;8.952;2022-09-21T02:30:19;2.67;;;1.70;;
15086;SDS011;7642;48.478;8.952;2022-09-21T02:35:29;2.47;;;1.48;;
15086;SDS011;7642;48.478;8.952;2022-09-21T02:41:37;1.77;;;1.40;;
15086;SDS011;7642;48.478;8.952;2022-09-21T02:44:17;4.85;;;1.80;;
15086;SDS011;7642;48.478;8.952;2022-09-21T02:47:03;5.60;;;1.48;;
15086;SDS011;7642;48.478;8.952;2022-09-21T02:49:38;3.00;;;1.23;;
15086;SDS011;7642;48.478;8.952;2022-09-21T02:52:10;1.60;;;1.30;;
15086;SDS011;7642;48.478;8.952;2022-09-21T02:54:38;2.75;;;2.08;;
15086;SDS011;7642;48.478;8.952;2022-09-21T02:57:07;2.13;;;1.88;;
15086;SDS011;7642;48.478;8.952;2022-09-21T02:59:35;3.10;;;1.77;;
15086;SDS011;7642;48.478;8.952;2022-09-21T03:02:01;2.10;;;1.55;;
15086;SDS011;7642;48.478;8.952;2022-09-21T03:04:27;3.55;;;1.45;;
15086;SDS011;7642;48.478;8.952;2022-09-21T03:06:53;2.30;;;1.80;;
15086;SDS011;7642;48.478;8.952;2022-09-21T03:09:18;4.10;;;1.75;;
15086;SDS011;7642;48.478;8.952;2022-09-21T03:11:48;3.35;;;1.98;;
15086;SDS011;7642;48.478;8.952;2022-09-21T03:14:14;2.92;;;1.63;;
15086;SDS011;7642;48.478;8.952;2022-09-21T03:16:41;3.88;;;1.70;;
15086;SDS011;7642;48.478;8.952;2022-09-21T03:19:06;3.85;;;1.50;;
15086;SDS011;7642;48.478;8.952;2022-09-21T03:21:33;2.88;;;2.00;;
15086;SDS011;7642;48.478;8.952;2022-09-21T03:23:58;2.83;;;2.08;;
15086;SDS011;7642;48.478;8.952;2022-09-21T03:26:24;3.88;;;2.20;;
15086;SDS011;7642;48.478;8.952;2022-09-21T03:28:50;4.43;;;2.17;;
15086;SDS011;7642;48.478;8.952;2022-09-21T03:31:18;4.88;;;2.80;;
15086;SDS011;7642;48.478;8.952;2022-09-21T03:33:44;3.08;;;2.30;;
15086;SDS011;7642;48.478;8.952;2022-09-21T03:36:10;3.63;;;2.38;;
15086;SDS011;7642;48.478;8.952;2022-09-21T03:38:36;3.60;;;2.05;;
15086;SDS011;7642;48.478;8.952;2022-09-21T03:41:02;2.38;;;1.77;;
15086;SDS011;7642;48.478;8.952;2022-09-21T03:43:28;3.70;;;1.55;;
15086;SDS011;7642;48.478;8.952;2022-09-21T03:45:54;2.40;;;1.83;;
15086;SDS011;7642;48.478;8.952;2022-09-21T03:48:20;1.58;;;1.48;;
15086;SDS011;7642;48.478;8.952;2022-09-21T03:50:46;4.70;;;2.17;;
15086;SDS011;7642;48.478;8.952;2022-09-21T03:53:12;2.10;;;1.60;;
15086;SDS011;7642;48.478;8.952;2022-09-21T03:55:38;2.70;;;1.73;;
15086;SDS011;7642;48.478;8.952;2022-09-21T03:58:04;5.80;;;2.22;;
15086;SDS011;7642;48.478;8.952;2022-09-21T04:00:30;3.25;;;2.53;;
15086;SDS011;7642;48.478;8.952;2022-09-21T04:02:57;5.65;;;3.17;;
15086;SDS011;7642;48.478;8.952;2022-09-21T04:05:22;5.13;;;2.95;;
15086;SDS011;7642;48.478;8.952;2022-09-21T04:07:48;5.43;;;3.33;;
15086;SDS011;7642;48.478;8.952;2022-09-21T04:10:15;4.45;;;2.95;;
15086;SDS011;7642;48.478;8.952;2022-09-21T04:12:43;5.85;;;3.38;;
15086;SDS011;7642;48.478;8.952;2022-09-21T04:15:14;7.80;;;3.47;;
15086;SDS011;7642;48.478;8.952;2022-09-21T04:17:43;7.05;;;3.38;;
15086;SDS011;7642;48.478;8.952;2022-09-21T04:20:10;6.32;;;3.25;;
15086;SDS011;7642;48.478;8.952;2022-09-21T04:22:36;4.60;;;3.08;;
15086;SDS011;7642;48.478;8.952;2022-09-21T04:25:02;5.03;;;2.90;;
15086;SDS011;7642;48.478;8.952;2022-09-21T04:27:28;6.15;;;3.13;;
15086;SDS011;7642;48.478;8.952;2022-09-21T04:29:55;5.20;;;2.70;;
15086;SDS011;7642;48.478;8.952;2022-09-21T04:32:20;4.97;;;3.40;;
15086;SDS011;7642;48.478;8.952;2022-09-21T04:34:46;4.38;;;2.63;;
15086;SDS011;7642;48.478;8.952;2022-09-21T04:37:11;4.93;;;3.00;;
15086;SDS011;7642;48.478;8.952;2022-09-21T04:39:37;5.22;;;2.80;;
15086;SDS011;7642;48.478;8.952;2022-09-21T04:42:04;5.35;;;2.72;;
15086;SDS011;7642;48.478;8.952;2022-09-21T04:44:30;4.78;;;3.30;;
15086;SDS011;7642;48.478;8.952;2022-09-21T04:46:56;3.45;;;2.75;;
15086;SDS011;7642;48.478;8.952;2022-09-21T04:49:22;5.35;;;3.10;;
15086;SDS011;7642;48.478;8.952;2022-09-21T04:51:48;4.75;;;3.58;;
15086;SDS011;7642;48.478;8.952;2022-09-21T04:54:14;5.78;;;3.40;;
15086;SDS011;7642;48.478;8.952;2022-09-21T04:56:39;7.88;;;3.38;;
15086;SDS011;7642;48.478;8.952;2022-09-21T04:59:05;7.10;;;3.72;;
15086;SDS011;7642;48.478;8.952;2022-09-21T05:01:31;7.65;;;3.88;;
15086;SDS011;7642;48.478;8.952;2022-09-21T05:03:57;5.78;;;3.70;;
15086;SDS011;7642;48.478;8.952;2022-09-21T05:06:26;4.90;;;3.10;;
15086;SDS011;7642;48.478;8.952;2022-09-21T05:08:53;7.07;;;3.58;;
15086;SDS011;7642;48.478;8.952;2022-09-21T05:11:37;4.75;;;3.00;;
15086;SDS011;7642;48.478;8.952;2022-09-21T05:14:03;6.07;;;3.83;;
15086;SDS011;7642;48.478;8.952;2022-09-21T05:16:29;6.40;;;3.47;;
15086;SDS011;7642;48.478;8.952;2022-09-21T05:18:54;8.15;;;3.50;;
15086;SDS011;7642;48.478;8.952;2022-09-21T05:21:20;14.60;;;4.18;;
15086;SDS011;7642;48.478;8.952;2022-09-21T05:23:46;10.73;;;3.47;;
15086;SDS011;7642;48.478;8.952;2022-09-21T05:26:11;6.13;;;3.03;;
15086;SDS011;7642;48.478;8.952;2022-09-21T05:28:37;4.60;;;2.97;;
15086;SDS011;7642;48.478;8.952;2022-09-21T05:31:08;8.68;;;3.58;;
15086;SDS011;7642;48.478;8.952;2022-09-21T05:33:53;6.38;;;3.60;;
15086;SDS011;7642;48.478;8.952;2022-09-21T05:39:30;8.13;;;3.30;;
15086;SDS011;7642;48.478;8.952;2022-09-21T05:41:56;5.60;;;3.60;;
15086;SDS011;7642;48.478;8.952;2022-09-21T05:44:22;6.55;;;3.35;;
15086;SDS011;7642;48.478;8.952;2022-09-21T06:00:28;10.73;;;3.92;;
15086;SDS011;7642;48.478;8.952;2022-09-21T06:03:48;9.85;;;4.80;;
15086;SDS011;7642;48.478;8.952;2022-09-21T06:05:56;7.57;;;4.13;;
15086;SDS011;7642;48.478;8.952;2022-09-21T06:08:23;9.50;;;3.83;;
15086;SDS011;7642;48.478;8.952;2022-09-21T06:10:49;11.35;;;4.43;;
15086;SDS011;7642;48.478;8.952;2022-09-21T06:13:15;5.80;;;3.20;;
15086;SDS011;7642;48.478;8.952;2022-09-21T06:15:40;8.70;;;4.25;;
15086;SDS011;7642;48.478;8.952;2022-09-21T06:18:07;9.57;;;4.35;;
15086;SDS011;7642;48.478;8.952;2022-09-21T06:20:33;6.68;;;3.45;;
15086;SDS011;7642;48.478;8.952;2022-09-21T06:23:09;9.20;;;3.78;;
15086;SDS011;7642;48.478;8.952;2022-09-21T06:25:36;9.05;;;4.53;;
15086;SDS011;7642;48.478;8.952;2022-09-21T06:28:02;8.43;;;4.55;;
15086;SDS011;7642;48.478;8.952;2022-09-21T06:30:32;10.45;;;5.05;;
15086;SDS011;7642;48.478;8.952;2022-09-21T06:32:59;8.30;;;4.28;;
15086;SDS011;7642;48.478;8.952;2022-09-21T06:35:27;8.50;;;4.10;;
15086;SDS011;7642;48.478;8.952;2022-09-21T06:37:56;11.00;;;4.22;;
15086;SDS011;7642;48.478;8.952;2022-09-21T06:40:23;7.07;;;4.20;;
15086;SDS011;7642;48.478;8.952;2022-09-21T06:42:49;20.35;;;5.25;;
15086;SDS011;7642;48.478;8.952;2022-09-21T06:45:18;9.73;;;4.68;;
15086;SDS011;7642;48.478;8.952;2022-09-21T06:47:47;10.27;;;4.78;;
15086;SDS011;7642;48.478;8.952;2022-09-21T06:50:13;7.03;;;4.10;;
15086;SDS011;7642;48.478;8.952;2022-09-21T06:52:39;7.50;;;4.88;;
15086;SDS011;7642;48.478;8.952;2022-09-21T06:55:06;6.95;;;4.45;;
15086;SDS011;7642;48.478;8.952;2022-09-21T06:57:32;7.13;;;4.20;;
15086;SDS011;7642;48.478;8.952;2022-09-21T06:59:58;7.03;;;4.03;;
15086;SDS011;7642;48.478;8.952;2022-09-21T07:02:23;7.47;;;4.28;;
15086;SDS011;7642;48.478;8.952;2022-09-21T07:04:49;10.43;;;4.82;;
15086;SDS011;7642;48.478;8.952;2022-09-21T07:07:14;7.60;;;4.97;;
15086;SDS011;7642;48.478;8.952;2022-09-21T07:09:40;8.05;;;4.72;;
15086;SDS011;7642;48.478;8.952;2022-09-21T07:12:06;7.18;;;4.47;;
15086;SDS011;7642;48.478;8.952;2022-09-21T07:14:32;6.82;;;4.75;;
15086;SDS011;7642;48.478;8.952;2022-09-21T07:16:57;8.10;;;4.60;;
15086;SDS011;7642;48.478;8.952;2022-09-21T07:19:23;7.88;;;4.78;;
15086;SDS011;7642;48.478;8.952;2022-09-21T07:21:51;6.75;;;5.00;;
15086;SDS011;7642;48.478;8.952;2022-09-21T07:24:18;9.25;;;5.10;;
15086;SDS011;7642;48.478;8.952;2022-09-21T07:26:44;9.32;;;5.25;;
15086;SDS011;7642;48.478;8.952;2022-09-21T07:29:09;8.70;;;5.55;;
15086;SDS011;7642;48.478;8.952;2022-09-21T07:31:35;7.82;;;5.20;;
15086;SDS011;7642;48.478;8.952;2022-09-21T07:34:00;7.50;;;5.10;;
15086;SDS011;7642;48.478;8.952;2022-09-21T07:36:26;7.38;;;4.78;;
15086;SDS011;7642;48.478;8.952;2022-09-21T07:38:52;8.48;;;5.20;;
15086;SDS011;7642;48.478;8.952;2022-09-21T07:41:18;6.68;;;4.75;;
15086;SDS011;7642;48.478;8.952;2022-09-21T07:43:44;8.30;;;6.18;;
15086;SDS011;7642;48.478;8.952;2022-09-21T07:46:11;7.75;;;4.55;;
15086;SDS011;7642;48.478;8.952;2022-09-21T07:48:38;7.05;;;4.85;;
15086;SDS011;7642;48.478;8.952;2022-09-21T07:51:06;9.32;;;5.85;;
15086;SDS011;7642;48.478;8.952;2022-09-21T07:53:33;7.55;;;5.32;;
15086;SDS011;7642;48.478;8.952;2022-09-21T07:56:03;6.30;;;4.32;;
15086;SDS011;7642;48.478;8.952;2022-09-21T07:58:30;6.90;;;4.90;;
15086;SDS011;7642;48.478;8.952;2022-09-21T08:01:14;8.50;;;5.80;;
15086;SDS011;7642;48.478;8.952;2022-09-21T08:03:40;7.97;;;5.60;;
15086;SDS011;7642;48.478;8.952;2022-09-21T08:06:06;7.80;;;5.22;;
15086;SDS011;7642;48.478;8.952;2022-09-21T08:08:33;8.02;;;5.95;;
15086;SDS011;7642;48.478;8.952;2022-09-21T08:11:05;12.95;;;7.78;;
15086;SDS011;7642;48.478;8.952;2022-09-21T08:13:31;9.90;;;5.90;;
15086;SDS011;7642;48.478;8.952;2022-09-21T08:16:00;9.65;;;6.78;;
15086;SDS011;7642;48.478;8.952;2022-09-21T08:18:27;9.80;;;6.25;;
15086;SDS011;7642;48.478;8.952;2022-09-21T08:20:53;8.68;;;6.03;;
15086;SDS011;7642;48.478;8.952;2022-09-21T08:23:20;9.20;;;6.60;;
15086;SDS011;7642;48.478;8.952;2022-09-21T08:25:45;11.35;;;7.38;;
15086;SDS011;7642;48.478;8.952;2022-09-21T08:28:12;10.40;;;6.32;;
15086;SDS011;7642;48.478;8.952;2022-09-21T08:30:38;10.30;;;6.32;;
15086;SDS011;7642;48.478;8.952;2022-09-21T08:33:05;21.13;;;11.07;;
15086;SDS011;7642;48.478;8.952;2022-09-21T08:35:32;9.98;;;7.07;;
15086;SDS011;7642;48.478;8.952;2022-09-21T08:37:58;9.85;;;5.88;;
15086;SDS011;7642;48.478;8.952;2022-09-21T08:40:24;10.35;;;6.47;;
15086;SDS011;7642;48.478;8.952;2022-09-21T08:42:55;11.68;;;6.07;;
15086;SDS011;7642;48.478;8.952;2022-09-21T08:45:44;15.25;;;6.57;;
15086;SDS011;7642;48.478;8.952;2022-09-21T08:48:16;7.38;;;5.05;;
15086;SDS011;7642;48.478;8.952;2022-09-21T08:50:50;11.35;;;6.95;;
15086;SDS011;7642;48.478;8.952;2022-09-21T08:53:19;9.02;;;6.13;;
15086;SDS011;7642;48.478;8.952;2022-09-21T08:55:50;9.23;;;6.57;;
15086;SDS011;7642;48.478;8.952;2022-09-21T08:58:26;9.45;;;5.57;;
15086;SDS011;7642;48.478;8.952;2022-09-21T09:14:46;9.95;;;4.18;;
15086;SDS011;7642;48.478;8.952;2022-09-21T09:17:35;10.18;;;4.18;;
15086;SDS011;7642;48.478;8.952;2022-09-21T09:20:27;8.32;;;3.97;;
15086;SDS011;7642;48.478;8.952;2022-09-21T09:23:10;4.93;;;3.45;;
15086;SDS011;7642;48.478;8.952;2022-09-21T09:25:43;4.88;;;3.13;;
15086;SDS011;7642;48.478;8.952;2022-09-21T09:28:24;8.00;;;3.63;;
15086;SDS011;7642;48.478;8.952;2022-09-21T09:31:18;4.63;;;3.17;;
15086;SDS011;7642;48.478;8.952;2022-09-21T09:34:06;5.75;;;2.72;;
15086;SDS011;7642;48.478;8.952;2022-09-21T09:36:34;3.58;;;3.13;;
15086;SDS011;7642;48.478;8.952;2022-09-21T09:39:13;4.03;;;2.08;;
15086;SDS011;7642;48.478;8.952;2022-09-21T09:52:15;3.45;;;2.17;;
15086;SDS011;7642;48.478;8.952;2022-09-21T09:54:41;2.88;;;2.13;;
15086;SDS011;7642;48.478;8.952;2022-09-21T09:57:07;2.20;;;1.77;;
15086;SDS011;7642;48.478;8.952;2022-09-21T09:59:48;4.20;;;2.17;;
15086;SDS011;7642;48.478;8.952;2022-09-21T10:02:24;1.58;;;1.30;;
15086;SDS011;7642;48.478;8.952;2022-09-21T10:05:01;2.10;;;1.10;;
15086;SDS011;7642;48.478;8.952;2022-09-21T10:09:58;2.45;;;1.65;;
15086;SDS011;7642;48.478;8.952;2022-09-21T10:12:24;1.25;;;1.13;;
15086;SDS011;7642;48.478;8.952;2022-09-21T10:14:52;3.20;;;1.10;;
15086;SDS011;7642;48.478;8.952;2022-09-21T10:17:25;1.38;;;1.25;;
15086;SDS011;7642;48.478;8.952;2022-09-21T10:20:01;1.85;;;0.98;;
15086;SDS011;7642;48.478;8.952;2022-09-21T10:22:29;1.85;;;1.00;;
15086;SDS011;7642;48.478;8.952;2022-09-21T10:24:55;1.45;;;1.00;;
15086;SDS011;7642;48.478;8.952;2022-09-21T10:27:29;1.40;;;0.80;;
15086;SDS011;7642;48.478;8.952;2022-09-21T10:29:58;0.73;;;0.70;;
15086;SDS011;7642;48.478;8.952;2022-09-21T10:32:28;2.63;;;1.20;;
15086;SDS011;7642;48.478;8.952;2022-09-21T10:37:33;3.35;;;1.17;;
15086;SDS011;7642;48.478;8.952;2022-09-21T10:40:01;0.60;;;0.60;;
15086;SDS011;7642;48.478;8.952;2022-09-21T10:42:30;1.65;;;0.95;;
15086;SDS011;7642;48.478;8.952;2022-09-21T10:47:43;1.67;;;0.75;;
15086;SDS011;7642;48.478;8.952;2022-09-21T10:58:23;1.85;;;0.75;;
15086;SDS011;7642;48.478;8.952;2022-09-21T11:00:50;0.50;;;0.50;;
15086;SDS011;7642;48.478;8.952;2022-09-21T11:06:02;1.20;;;0.50;;
15086;SDS011;7642;48.478;8.952;2022-09-21T11:08:35;1.40;;;0.70;;
15086;SDS011;7642;48.478;8.952;2022-09-21T11:13:59;1.48;;;0.40;;
15086;SDS011;7642;48.478;8.952;2022-09-21T11:16:36;1.88;;;0.88;;
15086;SDS011;7642;48.478;8.952;2022-09-21T11:24:46;1.92;;;0.80;;
15086;SDS011;7642;48.478;8.952;2022-09-21T11:27:32;3.70;;;0.50;;
15086;SDS011;7642;48.478;8.952;2022-09-21T11:32:53;0.70;;;0.60;;
15086;SDS011;7642;48.478;8.952;2022-09-21T11:38:41;2.38;;;0.63;;
15086;SDS011;7642;48.478;8.952;2022-09-21T11:56:38;1.60;;;0.55;;
15086;SDS011;7642;48.478;8.952;2022-09-21T11:59:42;1.05;;;0.95;;
15086;SDS011;7642;48.478;8.952;2022-09-21T12:08:09;0.52;;;0.52;;
15086;SDS011;7642;48.478;8.952;2022-09-21T12:19:24;0.68;;;0.50;;
15086;SDS011;7642;48.478;8.952;2022-09-21T12:22:43;0.75;;;0.57;;
15086;SDS011;7642;48.478;8.952;2022-09-21T12:25:14;1.23;;;0.50;;
15086;SDS011;7642;48.478;8.952;2022-09-21T12:28:28;0.65;;;0.25;;
15086;SDS011;7642;48.478;8.952;2022-09-21T12:30:40;1.52;;;0.65;;
15086;SDS011;7642;48.478;8.952;2022-09-21T12:33:11;0.60;;;0.45;;
15086;SDS011;7642;48.478;8.952;2022-09-21T12:35:56;2.05;;;0.60;;
15086;SDS011;7642;48.478;8.952;2022-09-21T12:38:40;1.40;;;0.40;;
15086;SDS011;7642;48.478;8.952;2022-09-21T12:44:14;0.93;;;0.57;;
15086;SDS011;7642;48.478;8.952;2022-09-21T12:47:08;0.68;;;0.28;;
15086;SDS011;7642;48.478;8.952;2022-09-21T12:49:43;1.17;;;0.20;;
15086;SDS011;7642;48.478;8.952;2022-09-21T12:52:19;1.30;;;0.38;;
15086;SDS011;7642;48.478;8.952;2022-09-21T12:54:49;0.40;;;0.20;;
15086;SDS011;7642;48.478;8.952;2022-09-21T13:00:10;1.15;;;0.40;;
15086;SDS011;7642;48.478;8.952;2022-09-21T13:13:15;0.40;;;0.40;;
15086;SDS011;7642;48.478;8.952;2022-09-21T13:15:51;1.55;;;0.40;;
15086;SDS011;7642;48.478;8.952;2022-09-21T13:18:25;0.82;;;0.40;;
15086;SDS011;7642;48.478;8.952;2022-09-21T13:20:51;1.00;;;0.10;;
15086;SDS011;7642;48.478;8.952;2022-09-21T13:23:22;1.25;;;0.60;;
15086;SDS011;7642;48.478;8.952;2022-09-21T13:26:06;0.50;;;0.45;;
15086;SDS011;7642;48.478;8.952;2022-09-21T13:28:38;0.30;;;0.30;;
15086;SDS011;7642;48.478;8.952;2022-09-21T13:37:12;1.63;;;0.70;;
15086;SDS011;7642;48.478;8.952;2022-09-21T13:47:40;0.35;;;0.30;;
15086;SDS011;7642;48.478;8.952;2022-09-21T13:50:49;0.32;;;0.32;;
15086;SDS011;7642;48.478;8.952;2022-09-21T13:53:03;0.68;;;0.38;;
15086;SDS011;7642;48.478;8.952;2022-09-21T13:55:47;0.35;;;0.20;;
15086;SDS011;7642;48.478;8.952;2022-09-21T14:03:24;0.40;;;0.30;;
15086;SDS011;7642;48.478;8.952;2022-09-21T14:06:08;0.52;;;0.28;;
15086;SDS011;7642;48.478;8.952;2022-09-21T14:08:48;0.80;;;0.30;;
15086;SDS011;7642;48.478;8.952;2022-09-21T14:11:33;0.82;;;0.40;;
15086;SDS011;7642;48.478;8.952;2022-09-21T14:16:53;0.25;;;0.20;;
15086;SDS011;7642;48.478;8.952;2022-09-21T14:24:40;0.55;;;0.20;;
15086;SDS011;7642;48.478;8.952;2022-09-21T14:27:19;0.65;;;0.40;;
15086;SDS011;7642;48.478;8.952;2022-09-21T14:32:33;1.67;;;0.50;;
15086;SDS011;7642;48.478;8.952;2022-09-21T14:35:06;1.05;;;0.30;;
15086;SDS011;7642;48.478;8.952;2022-09-21T14:37:43;0.52;;;0.35;;
15086;SDS011;7642;48.478;8.952;2022-09-21T14:40:32;2.10;;;0.43;;
15086;SDS011;7642;48.478;8.952;2022-09-21T14:43:05;0.40;;;0.22;;
15086;SDS011;7642;48.478;8.952;2022-09-21T14:45:41;1.88;;;0.40;;
15086;SDS011;7642;48.478;8.952;2022-09-21T14:56:50;2.20;;;0.47;;
15086;SDS011;7642;48.478;8.952;2022-09-21T14:59:41;0.70;;;0.22;;
15086;SDS011;7642;48.478;8.952;2022-09-21T15:02:15;1.08;;;0.30;;
15086;SDS011;7642;48.478;8.952;2022-09-21T15:18:47;0.73;;;0.30;;
15086;SDS011;7642;48.478;8.952;2022-09-21T15:23:51;1.35;;;0.38;;
15086;SDS011;7642;48.478;8.952;2022-09-21T15:26:19;0.57;;;0.38;;
15086;SDS011;7642;48.478;8.952;2022-09-21T15:28:48;0.30;;;0.30;;
15086;SDS011;7642;48.478;8.952;2022-09-21T15:31:17;0.30;;;0.30;;
15086;SDS011;7642;48.478;8.952;2022-09-21T15:33:44;0.30;;;0.30;;
15086;SDS011;7642;48.478;8.952;2022-09-21T15:36:12;0.55;;;0.40;;
15086;SDS011;7642;48.478;8.952;2022-09-21T15:38:48;0.75;;;0.63;;
15086;SDS011;7642;48.478;8.952;2022-09-21T15:46:42;0.50;;;0.50;;
15086;SDS011;7642;48.478;8.952;2022-09-21T15:49:11;1.45;;;0.70;;
15086;SDS011;7642;48.478;8.952;2022-09-21T15:51:40;2.25;;;0.75;;
15086;SDS011;7642;48.478;8.952;2022-09-21T15:54:31;0.85;;;0.70;;
15086;SDS011;7642;48.478;8.952;2022-09-21T15:56:58;1.33;;;0.70;;
15086;SDS011;7642;48.478;8.952;2022-09-21T15:59:27;0.70;;;0.60;;
15086;SDS011;7642;48.478;8.952;2022-09-21T16:01:54;1.02;;;0.73;;
15086;SDS011;7642;48.478;8.952;2022-09-21T16:04:24;1.45;;;0.93;;
15086;SDS011;7642;48.478;8.952;2022-09-21T16:06:57;3.92;;;0.90;;
15086;SDS011;7642;48.478;8.952;2022-09-21T16:15:25;0.85;;;0.60;;
15086;SDS011;7642;48.478;8.952;2022-09-21T16:20:36;0.55;;;0.40;;
15086;SDS011;7642;48.478;8.952;2022-09-21T16:23:11;0.55;;;0.40;;
15086;SDS011;7642;48.478;8.952;2022-09-21T16:25:38;0.77;;;0.43;;
15086;SDS011;7642;48.478;8.952;2022-09-21T16:30:50;0.90;;;0.45;;
15086;SDS011;7642;48.478;8.952;2022-09-21T16:33:33;1.23;;;0.52;;
15086;SDS011;7642;48.478;8.952;2022-09-21T16:36:01;1.35;;;0.70;;
15086;SDS011;7642;48.478;8.952;2022-09-21T16:38:47;1.27;;;0.65;;
15086;SDS011;7642;48.478;8.952;2022-09-21T16:41:14;0.90;;;0.57;;
15086;SDS011;7642;48.478;8.952;2022-09-21T16:43:40;2.15;;;0.77;;
15086;SDS011;7642;48.478;8.952;2022-09-21T16:46:09;0.63;;;0.45;;
15086;SDS011;7642;48.478;8.952;2022-09-21T16:48:35;0.80;;;0.75;;
15086;SDS011;7642;48.478;8.952;2022-09-21T16:51:01;0.52;;;0.40;;
15086;SDS011;7642;48.478;8.952;2022-09-21T16:53:27;0.28;;;0.28;;
15086;SDS011;7642;48.478;8.952;2022-09-21T16:55:53;0.75;;;0.55;;
15086;SDS011;7642;48.478;8.952;2022-09-21T16:58:19;2.92;;;0.65;;
15086;SDS011;7642;48.478;8.952;2022-09-21T17:00:46;1.00;;;0.75;;
15086;SDS011;7642;48.478;8.952;2022-09-21T17:03:15;2.03;;;0.60;;
15086;SDS011;7642;48.478;8.952;2022-09-21T17:05:41;1.27;;;0.60;;
15086;SDS011;7642;48.478;8.952;2022-09-21T17:08:08;2.00;;;0.52;;
15086;SDS011;7642;48.478;8.952;2022-09-21T17:10:39;0.40;;;0.40;;
15086;SDS011;7642;48.478;8.952;2022-09-21T17:13:09;0.40;;;0.40;;
15086;SDS011;7642;48.478;8.952;2022-09-21T17:15:36;0.90;;;0.50;;
15086;SDS011;7642;48.478;8.952;2022-09-21T17:18:05;0.60;;;0.43;;
15086;SDS011;7642;48.478;8.952;2022-09-21T17:20:35;2.53;;;0.70;;
15086;SDS011;7642;48.478;8.952;2022-09-21T17:23:04;0.73;;;0.52;;
15086;SDS011;7642;48.478;8.952;2022-09-21T17:25:30;1.67;;;0.70;;
15086;SDS011;7642;48.478;8.952;2022-09-21T17:27:57;1.20;;;0.60;;
15086;SDS011;7642;48.478;8.952;2022-09-21T17:30:24;3.45;;;0.82;;
15086;SDS011;7642;48.478;8.952;2022-09-21T17:32:50;1.58;;;0.45;;
15086;SDS011;7642;48.478;8.952;2022-09-21T17:38:02;2.55;;;0.73;;
15086;SDS011;7642;48.478;8.952;2022-09-21T17:40:29;0.95;;;0.60;;
15086;SDS011;7642;48.478;8.952;2022-09-21T17:43:03;1.40;;;0.60;;
15086;SDS011;7642;48.478;8.952;2022-09-21T17:46:09;1.15;;;0.80;;
15086;SDS011;7642;48.478;8.952;2022-09-21T17:48:37;2.53;;;0.77;;
15086;SDS011;7642;48.478;8.952;2022-09-21T17:51:04;1.15;;;0.75;;
15086;SDS011;7642;48.478;8.952;2022-09-21T17:53:30;0.93;;;0.70;;
15086;SDS011;7642;48.478;8.952;2022-09-21T17:56:02;1.10;;;0.65;;
15086;SDS011;7642;48.478;8.952;2022-09-21T17:58:43;2.33;;;1.13;;
15086;SDS011;7642;48.478;8.952;2022-09-21T18:01:27;1.10;;;0.70;;
15086;SDS011;7642;48.478;8.952;2022-09-21T18:03:58;1.15;;;0.82;;
15086;SDS011;7642;48.478;8.952;2022-09-21T18:06:24;1.00;;;0.88;;
15086;SDS011;7642;48.478;8.952;2022-09-21T18:08:50;1.85;;;1.73;;
15086;SDS011;7642;48.478;8.952;2022-09-21T18:16:30;1.15;;;0.80;;
15086;SDS011;7642;48.478;8.952;2022-09-21T18:22:01;0.73;;;0.50;;
15086;SDS011;7642;48.478;8.952;2022-09-21T18:24:46;0.93;;;0.70;;
15086;SDS011;7642;48.478;8.952;2022-09-21T18:27:12;0.90;;;0.75;;
15086;SDS011;7642;48.478;8.952;2022-09-21T18:29:38;0.40;;;0.40;;
15086;SDS011;7642;48.478;8.952;2022-09-21T18:46:05;2.28;;;0.70;;
15086;SDS011;7642;48.478;8.952;2022-09-21T18:49:14;5.65;;;0.80;;
15086;SDS011;7642;48.478;8.952;2022-09-21T18:51:55;0.60;;;0.57;;
15086;SDS011;7642;48.478;8.952;2022-09-21T18:54:25;1.38;;;0.98;;
15086;SDS011;7642;48.478;8.952;2022-09-21T18:56:52;0.82;;;0.75;;
15086;SDS011;7642;48.478;8.952;2022-09-21T18:59:19;2.85;;;0.52;;
15086;SDS011;7642;48.478;8.952;2022-09-21T19:01:46;1.50;;;1.35;;
15086;SDS011;7642;48.478;8.952;2022-09-21T19:04:12;2.65;;;1.27;;
15086;SDS011;7642;48.478;8.952;2022-09-21T19:12:21;1.55;;;1.33;;
15086;SDS011;7642;48.478;8.952;2022-09-21T19:15:08;1.63;;;1.15;;
15086;SDS011;7642;48.478;8.952;2022-09-21T19:20:46;4.32;;;1.60;;
15086;SDS011;7642;48.478;8.952;2022-09-21T19:26:09;1.90;;;1.70;;
15086;SDS011;7642;48.478;8.952;2022-09-21T19:31:29;4.55;;;2.20;;
15086;SDS011;7642;48.478;8.952;2022-09-21T19:33:55;2.92;;;2.20;;
15086;SDS011;7642;48.478;8.952;2022-09-21T19:36:21;3.15;;;2.58;;
15086;SDS011;7642;48.478;8.952;2022-09-21T19:38:48;2.38;;;2.00;;
15086;SDS011;7642;48.478;8.952;2022-09-21T19:46:58;2.58;;;1.50;;